Time;durP1;ratioP1;P1;durP2;ratioP2;P2;SDS_P1;SDS_P2;PMS_P1;PMS_P2;Temp;Humidity;BMP_temperature;BMP_pressure;BME280_temperature;BME280_humidity;BME280_pressure;Samples;Min_cycle;Max_cycle;Signal;HPM_P1;HPM_P2
2022/08/17 00:00:59;;;;;;;9.80;7.60;;;21.40;87.70;;;;;;634529;227;26569;-73
2022/08/17 00:03:26;;;;;;;9.48;7.32;;;21.40;87.80;;;;;;634397;227;26613;-73
2022/08/17 00:05:53;;;;;;;8.52;7.72;;;21.40;87.80;;;;;;634367;227;26530;-73
2022/08/17 00:08:21;;;;;;;7.85;7.10;;;21.30;87.60;;;;;;634198;227;26567;-72
2022/08/17 00:10:49;;;;;;;7.87;7.18;;;21.30;87.60;;;;;;634269;226;26773;-73
2022/08/17 00:13:17;;;;;;;7.62;6.82;;;21.30;87.60;;;;;;634288;225;26785;-73
2022/08/17 00:15:43;;;;;;;12.00;7.62;;;21.30;87.00;;;;;;634188;227;26551;-73
2022/08/17 00:18:11;;;;;;;8.32;7.43;;;21.30;86.90;;;;;;634336;226;27211;-72
2022/08/17 00:20:38;;;;;;;9.75;7.18;;;21.30;87.20;;;;;;634292;226;26519;-73
2022/08/17 00:23:06;;;;;;;7.75;7.03;;;21.30;87.80;;;;;;634052;226;26781;-73
2022/08/17 00:25:33;;;;;;;7.70;7.03;;;21.30;88.50;;;;;;633965;226;26599;-72
2022/08/17 00:28:01;;;;;;;7.80;7.03;;;21.30;89.10;;;;;;634055;226;26795;-72
2022/08/17 00:30:27;;;;;;;7.72;7.03;;;21.20;89.80;;;;;;634339;226;26587;-72
2022/08/17 00:32:55;;;;;;;7.85;7.15;;;21.20;90.10;;;;;;633980;226;26579;-72
2022/08/17 00:35:23;;;;;;;7.93;7.22;;;21.20;90.60;;;;;;634089;226;26584;-72
2022/08/17 00:37:51;;;;;;;8.60;7.12;;;21.20;90.90;;;;;;634091;226;26596;-72
2022/08/17 00:40:19;;;;;;;7.85;7.05;;;21.20;91.20;;;;;;634081;226;26554;-72
2022/08/17 00:42:46;;;;;;;8.02;7.18;;;21.20;91.60;;;;;;634000;227;26550;-72
2022/08/17 00:45:14;;;;;;;7.80;7.05;;;21.20;91.90;;;;;;634016;227;26618;-72
2022/08/17 00:47:42;;;;;;;7.85;7.05;;;21.20;92.30;;;;;;634004;227;26610;-72
2022/08/17 00:50:10;;;;;;;7.60;6.90;;;21.30;92.60;;;;;;633990;226;26599;-72
2022/08/17 00:52:38;;;;;;;7.45;6.68;;;21.30;92.90;;;;;;633829;227;26582;-72
2022/08/17 00:55:06;;;;;;;8.35;7.55;;;21.40;92.30;;;;;;633680;227;26609;-72
2022/08/17 00:57:37;;;;;;;8.15;7.35;;;21.40;92.20;;;;;;634627;224;26590;-72
2022/08/17 01:00:05;;;;;;;8.57;7.25;;;21.40;92.20;;;;;;635263;226;26801;-72
2022/08/17 01:02:32;;;;;;;7.28;6.68;;;21.50;92.10;;;;;;634794;226;26541;-72
2022/08/17 01:04:59;;;;;;;7.75;6.95;;;21.50;92.30;;;;;;634816;226;26576;-72
2022/08/17 01:07:27;;;;;;;8.73;6.95;;;21.50;92.20;;;;;;634779;226;26581;-72
2022/08/17 01:09:54;;;;;;;7.80;6.93;;;21.40;92.80;;;;;;634604;226;26830;-72
2022/08/17 01:12:22;;;;;;;7.62;6.93;;;21.30;93.20;;;;;;634639;227;26587;-72
2022/08/17 01:14:49;;;;;;;7.70;7.00;;;21.20;93.30;;;;;;634652;222;26622;-72
2022/08/17 01:17:16;;;;;;;8.25;7.37;;;21.20;93.60;;;;;;634329;226;26813;-72
2022/08/17 01:19:44;;;;;;;8.35;7.57;;;21.10;94.00;;;;;;634318;226;26539;-72
2022/08/17 01:22:25;;;;;;;8.20;7.03;;;21.00;94.30;;;;;;634239;227;26769;-72
2022/08/17 01:24:53;;;;;;;8.82;7.03;;;21.00;94.70;;;;;;634326;227;26570;-72
2022/08/17 01:27:20;;;;;;;8.50;7.62;;;20.90;95.10;;;;;;633426;227;26539;-72
2022/08/17 01:29:48;;;;;;;8.85;7.15;;;20.90;95.10;;;;;;634341;227;26762;-72
2022/08/17 01:32:15;;;;;;;8.15;7.37;;;20.90;95.70;;;;;;634260;227;26542;-72
2022/08/17 01:34:42;;;;;;;8.55;7.35;;;20.90;95.90;;;;;;634073;226;26848;-72
2022/08/17 01:37:09;;;;;;;9.20;7.53;;;20.90;96.00;;;;;;633984;227;26601;-72
2022/08/17 01:39:52;;;;;;;7.68;6.87;;;20.80;96.90;;;;;;634078;226;26808;-72
2022/08/17 01:42:20;;;;;;;8.85;7.93;;;20.80;96.90;;;;;;633828;227;26616;-72
2022/08/17 01:44:47;;;;;;;7.80;7.10;;;20.80;97.20;;;;;;633624;227;26631;-72
2022/08/17 01:47:14;;;;;;;8.15;7.35;;;20.70;97.40;;;;;;634035;226;26814;-72
2022/08/17 01:49:41;;;;;;;8.27;7.57;;;20.80;97.60;;;;;;634010;226;26582;-72
2022/08/17 01:52:09;;;;;;;9.40;7.37;;;20.80;97.80;;;;;;633953;226;26806;-72
2022/08/17 01:54:36;;;;;;;8.73;7.93;;;20.80;97.90;;;;;;634049;226;26639;-72
2022/08/17 01:57:03;;;;;;;7.60;6.90;;;20.80;98.20;;;;;;633984;226;26816;-72
2022/08/17 01:59:30;;;;;;;8.38;7.62;;;20.80;98.20;;;;;;633989;227;26582;-72
2022/08/17 02:01:58;;;;;;;8.45;7.53;;;20.70;98.70;;;;;;633973;226;26808;-72
2022/08/17 02:04:25;;;;;;;8.23;7.40;;;20.60;99.20;;;;;;634041;226;26594;-72
2022/08/17 02:06:52;;;;;;;8.93;7.97;;;20.70;99.80;;;;;;634021;226;26820;-72
2022/08/17 02:09:19;;;;;;;8.27;7.57;;;20.80;99.70;;;;;;634827;224;26591;-72
2022/08/17 02:11:47;;;;;;;9.23;7.50;;;20.90;99.20;;;;;;635452;226;26866;-72
2022/08/17 02:14:14;;;;;;;8.98;7.57;;;20.80;99.90;;;;;;634977;226;26563;-72
2022/08/17 02:16:42;;;;;;;8.68;7.78;;;20.70;99.90;;;;;;634933;226;26566;-72
2022/08/17 02:19:09;;;;;;;9.18;7.95;;;20.80;99.90;;;;;;634683;225;26831;-72
2022/08/17 02:21:37;;;;;;;8.00;7.25;;;20.80;99.60;;;;;;634570;227;26595;-72
2022/08/17 02:24:04;;;;;;;7.93;7.15;;;20.70;99.90;;;;;;634652;226;26861;-72
2022/08/17 02:26:32;;;;;;;9.27;7.60;;;20.60;99.60;;;;;;634608;226;26628;-72
2022/08/17 02:29:00;;;;;;;9.05;7.87;;;20.70;99.50;;;;;;634225;226;26563;-72
2022/08/17 02:31:29;;;;;;;8.80;7.30;;;20.70;99.50;;;;;;634321;226;26788;-74
2022/08/17 02:33:55;;;;;;;14.70;8.35;;;20.80;99.90;;;;;;634236;227;26562;-72
2022/08/17 02:36:22;;;;;;;9.00;7.90;;;20.70;99.90;;;;;;634334;226;26867;-72
2022/08/17 02:38:50;;;;;;;9.43;8.38;;;20.60;99.90;;;;;;634257;227;26530;-72
2022/08/17 02:41:17;;;;;;;8.90;7.82;;;20.60;99.90;;;;;;634316;226;26775;-72
2022/08/17 02:43:44;;;;;;;8.93;8.02;;;20.60;99.90;;;;;;634193;223;26554;-72
2022/08/17 02:46:11;;;;;;;8.57;7.68;;;20.60;99.90;;;;;;634046;227;27307;-72
2022/08/17 02:48:38;;;;;;;9.32;7.15;;;20.50;99.90;;;;;;633996;226;26573;-72
2022/08/17 02:51:06;;;;;;;8.10;7.30;;;20.40;99.90;;;;;;634015;226;26764;-72
2022/08/17 02:53:34;;;;;;;9.23;7.85;;;20.40;99.90;;;;;;634042;226;26563;-72
2022/08/17 02:56:02;;;;;;;8.38;7.50;;;20.40;99.90;;;;;;634020;227;26568;-72
2022/08/17 02:58:29;;;;;;;11.40;7.85;;;20.40;99.90;;;;;;634021;226;26797;-72
2022/08/17 03:00:56;;;;;;;8.30;7.40;;;20.40;99.90;;;;;;633977;226;26585;-72
2022/08/17 03:03:23;;;;;;;10.05;7.45;;;20.30;99.90;;;;;;634009;226;26575;-72
2022/08/17 03:05:52;;;;;;;9.25;8.32;;;20.30;99.90;;;;;;634034;227;26591;-72
2022/08/17 03:08:19;;;;;;;8.55;7.65;;;20.30;99.90;;;;;;633901;227;26607;-72
2022/08/17 03:10:47;;;;;;;8.35;7.55;;;20.30;99.90;;;;;;634013;226;26609;-72
2022/08/17 03:13:15;;;;;;;9.02;7.95;;;20.20;99.90;;;;;;633974;226;26582;-72
2022/08/17 03:15:43;;;;;;;8.07;7.28;;;20.20;99.90;;;;;;634016;226;26590;-72
2022/08/17 03:18:10;;;;;;;8.50;7.70;;;20.20;99.90;;;;;;633874;227;26569;-72
2022/08/17 03:20:37;;;;;;;8.90;8.00;;;20.20;99.90;;;;;;634612;224;26829;-72
2022/08/17 03:23:05;;;;;;;9.07;7.75;;;20.20;99.90;;;;;;635423;226;26840;-72
2022/08/17 03:25:33;;;;;;;8.60;7.78;;;20.20;99.90;;;;;;635183;226;26783;-72
2022/08/17 03:28:01;;;;;;;9.93;7.57;;;20.20;99.90;;;;;;634888;226;26526;-72
2022/08/17 03:30:28;;;;;;;8.30;7.50;;;20.20;99.90;;;;;;634748;226;26567;-72
2022/08/17 03:32:56;;;;;;;8.38;7.30;;;20.20;99.90;;;;;;634645;226;26796;-72
2022/08/17 03:35:24;;;;;;;8.10;7.28;;;20.10;99.90;;;;;;634566;227;26610;-72
2022/08/17 03:37:51;;;;;;;8.18;7.30;;;20.10;99.90;;;;;;634520;226;26830;-72
2022/08/17 03:40:19;;;;;;;8.65;7.82;;;20.20;99.90;;;;;;634353;227;26546;-72
2022/08/17 03:42:46;;;;;;;8.15;7.40;;;20.20;99.90;;;;;;634293;226;26558;-72
2022/08/17 03:45:13;;;;;;;8.90;7.90;;;20.20;99.90;;;;;;634298;226;26563;-72
2022/08/17 03:57:52;;;;;;;8.05;7.25;;;20.20;99.90;;;;;;634061;226;26555;-72
2022/08/17 04:00:20;;;;;;;8.07;7.28;;;20.30;99.90;;;;;;633985;226;26584;-72
2022/08/17 04:02:48;;;;;;;7.82;7.12;;;20.30;99.90;;;;;;633889;227;26578;-72
2022/08/17 04:05:16;;;;;;;8.38;7.57;;;20.30;99.90;;;;;;634067;223;26610;-71
2022/08/17 04:07:44;;;;;;;8.18;7.45;;;20.30;99.90;;;;;;633985;227;26574;-72
2022/08/17 04:10:12;;;;;;;8.68;7.78;;;20.30;99.90;;;;;;633978;226;26925;-72
2022/08/17 04:12:44;;;;;;;9.05;7.57;;;20.30;99.90;;;;;;633956;227;26598;-72
2022/08/17 04:15:11;;;;;;;7.32;6.70;;;20.30;99.90;;;;;;633962;227;26598;-73
2022/08/17 04:17:39;;;;;;;8.60;7.70;;;20.30;99.90;;;;;;634048;227;26821;-72
2022/08/17 04:20:07;;;;;;;9.40;7.47;;;20.30;99.90;;;;;;634021;226;26597;-73
2022/08/17 04:22:34;;;;;;;8.60;7.70;;;20.30;99.90;;;;;;633890;227;26616;-72
2022/08/17 04:25:02;;;;;;;8.45;7.65;;;20.30;99.90;;;;;;634046;223;26825;-72
2022/08/17 04:27:29;;;;;;;8.45;6.72;;;20.40;99.90;;;;;;633732;227;26604;-72
2022/08/17 04:29:57;;;;;;;7.70;7.00;;;20.40;99.90;;;;;;634074;227;26639;-73
2022/08/17 04:32:24;;;;;;;7.55;6.85;;;20.40;99.90;;;;;;634743;224;26582;-72
2022/08/17 04:34:52;;;;;;;8.15;7.00;;;20.40;99.90;;;;;;635442;222;26599;-72
2022/08/17 04:37:18;;;;;;;8.10;7.30;;;20.50;99.90;;;;;;635093;226;26883;-72
2022/08/17 04:42:05;;;;;;;8.23;7.32;;;20.50;99.90;;;;;;634909;226;26604;-72
2022/08/17 04:42:16;;;;;;;7.97;7.22;;;20.60;99.90;;;;;;632974;226;26806;-72
2022/08/17 04:44:41;;;;;;;7.85;7.05;;;20.60;99.90;;;;;;634485;227;26891;-72
2022/08/17 04:47:08;;;;;;;8.13;7.32;;;20.70;99.90;;;;;;634654;226;26576;-72
2022/08/17 04:49:36;;;;;;;8.98;7.80;;;20.70;99.90;;;;;;634534;226;26813;-72
2022/08/17 04:52:03;;;;;;;8.05;7.10;;;20.80;99.90;;;;;;634195;226;26550;-72
2022/08/17 04:54:30;;;;;;;7.78;7.07;;;20.80;99.90;;;;;;634062;227;26644;-72
2022/08/17 04:56:58;;;;;;;8.18;7.40;;;20.90;99.90;;;;;;634274;226;26562;-72
2022/08/17 04:59:26;;;;;;;7.50;6.75;;;21.00;99.90;;;;;;634255;227;26542;-72
2022/08/17 05:01:53;;;;;;;8.57;7.45;;;21.00;99.90;;;;;;634264;225;26538;-72
2022/08/17 05:04:20;;;;;;;8.18;7.43;;;21.00;99.90;;;;;;634304;226;26568;-73
2022/08/17 05:06:48;;;;;;;7.90;7.20;;;21.10;99.90;;;;;;634304;226;26768;-72
2022/08/17 05:09:16;;;;;;;8.77;7.30;;;21.20;99.90;;;;;;634061;227;26610;-72
2022/08/17 05:11:42;;;;;;;7.72;7.00;;;21.20;99.90;;;;;;633856;226;26829;-72
2022/08/17 05:14:09;;;;;;;8.07;7.28;;;21.30;99.90;;;;;;634000;226;26594;-72
2022/08/17 05:16:36;;;;;;;8.05;7.35;;;21.30;99.90;;;;;;634057;226;26809;-72
2022/08/17 05:19:04;;;;;;;8.00;7.20;;;21.40;99.80;;;;;;634000;227;26561;-72
2022/08/17 05:21:31;;;;;;;7.97;6.97;;;21.50;99.30;;;;;;633951;227;26601;-72
2022/08/17 05:23:58;;;;;;;8.20;7.47;;;21.60;98.70;;;;;;634043;226;26647;-72
2022/08/17 05:26:26;;;;;;;8.48;7.28;;;21.60;98.20;;;;;;633985;226;26799;-72
2022/08/17 05:28:54;;;;;;;8.73;6.95;;;21.70;98.10;;;;;;633884;227;26578;-72
2022/08/17 05:31:21;;;;;;;7.45;6.70;;;21.70;97.80;;;;;;633987;227;26599;-71
2022/08/17 05:33:49;;;;;;;7.37;6.65;;;21.90;97.20;;;;;;633968;226;26586;-72
2022/08/17 05:36:17;;;;;;;7.28;6.60;;;21.90;96.70;;;;;;634015;226;26583;-72
2022/08/17 05:38:45;;;;;;;8.63;6.90;;;22.00;96.50;;;;;;634098;226;26595;-72
2022/08/17 05:41:13;;;;;;;7.22;6.53;;;22.10;96.10;;;;;;633963;226;26625;-72
2022/08/17 05:43:40;;;;;;;6.68;5.97;;;22.10;96.10;;;;;;634553;224;26585;-72
2022/08/17 05:46:13;;;;;;;6.40;5.90;;;22.30;95.30;;;;;;635550;225;26522;-72
2022/08/17 05:48:43;;;;;;;7.07;6.47;;;22.40;94.80;;;;;;635124;226;27189;-71
2022/08/17 05:51:15;;;;;;;10.10;7.15;;;22.60;94.30;;;;;;634713;226;26681;-72
2022/08/17 05:53:46;;;;;;;7.10;6.40;;;22.70;94.00;;;;;;633619;226;26843;-72
2022/08/17 05:56:35;;;;;;;7.47;6.72;;;22.80;93.50;;;;;;633732;227;26604;-72
2022/08/17 05:59:04;;;;;;;8.68;7.47;;;23.00;92.30;;;;;;633352;227;26623;-71
2022/08/17 06:01:32;;;;;;;7.43;6.65;;;22.90;92.30;;;;;;633715;227;26599;-72
2022/08/17 06:04:14;;;;;;;7.50;6.82;;;23.00;92.10;;;;;;634123;227;26829;-71
2022/08/17 06:06:44;;;;;;;7.32;6.65;;;23.10;91.80;;;;;;626106;227;26583;-71
2022/08/17 06:09:15;;;;;;;7.70;6.95;;;23.20;91.40;;;;;;634090;227;26557;-72
2022/08/17 06:11:44;;;;;;;7.68;6.80;;;23.30;90.60;;;;;;634092;227;26507;-72
2022/08/17 06:14:15;;;;;;;7.03;6.37;;;23.50;90.20;;;;;;634282;227;26569;-72
2022/08/17 06:16:43;;;;;;;9.10;7.00;;;23.60;89.60;;;;;;633460;227;26539;-71
2022/08/17 06:19:25;;;;;;;8.02;7.00;;;23.70;88.90;;;;;;634218;227;26554;-75
2022/08/17 06:21:53;;;;;;;12.05;7.45;;;23.80;88.20;;;;;;633629;227;26623;-72
2022/08/17 06:24:23;;;;;;;9.80;6.65;;;23.90;87.30;;;;;;633996;227;26823;-73
2022/08/17 06:26:51;;;;;;;9.18;7.53;;;24.00;86.70;;;;;;633749;226;26814;-73
2022/08/17 06:29:36;;;;;;;8.02;7.00;;;24.10;84.90;;;;;;633997;225;26592;-74
2022/08/17 06:32:03;;;;;;;7.60;6.07;;;24.20;85.20;;;;;;632785;227;26820;-75
2022/08/17 06:34:31;;;;;;;7.18;6.47;;;24.40;85.40;;;;;;633929;227;26620;-74
2022/08/17 06:37:23;;;;;;;8.02;6.28;;;24.50;85.00;;;;;;633976;226;26829;-74
2022/08/17 06:40:11;;;;;;;6.68;5.97;;;24.60;84.70;;;;;;625339;227;26628;-73
2022/08/17 06:43:00;;;;;;;6.40;5.80;;;24.80;84.20;;;;;;626048;226;26812;-73
2022/08/17 06:45:30;;;;;;;6.80;6.20;;;25.00;83.80;;;;;;629994;227;26808;-73
2022/08/17 06:48:01;;;;;;;7.07;5.78;;;25.10;83.30;;;;;;633755;227;26815;-72
2022/08/17 06:50:34;;;;;;;7.20;5.55;;;25.20;82.10;;;;;;633430;227;26571;-72
2022/08/17 06:53:04;;;;;;;7.10;6.40;;;25.40;80.70;;;;;;631210;226;26601;-72
2022/08/17 06:55:33;;;;;;;7.95;6.25;;;25.60;79.70;;;;;;633326;224;26576;-73
2022/08/17 06:58:00;;;;;;;6.87;6.22;;;25.90;78.20;;;;;;634110;226;26600;-72
2022/08/17 07:00:28;;;;;;;8.20;6.25;;;26.00;77.20;;;;;;634818;226;26546;-73
2022/08/17 07:03:19;;;;;;;7.28;6.12;;;26.20;77.10;;;;;;634727;226;26506;-72
2022/08/17 07:05:44;;;;;;;7.60;6.90;;;26.10;77.00;;;;;;626644;226;26927;-72
2022/08/17 07:08:18;;;;;;;7.72;6.40;;;26.30;76.50;;;;;;633103;227;26622;-72
2022/08/17 07:10:47;;;;;;;7.45;5.80;;;26.40;72.10;;;;;;631539;226;26802;-72
2022/08/17 07:13:40;;;;;;;7.78;5.57;;;26.60;72.20;;;;;;625013;229;26537;-72
2022/08/17 07:16:14;;;;;;;6.53;5.80;;;26.60;72.20;;;;;;628378;224;26598;-72
2022/08/17 07:18:42;;;;;;;7.68;5.95;;;26.70;71.60;;;;;;624618;230;26559;-72
2022/08/17 07:21:09;;;;;;;6.22;5.60;;;26.80;70.60;;;;;;625832;225;26534;-71
2022/08/17 07:23:49;;;;;;;7.70;6.03;;;26.90;70.30;;;;;;601066;239;26883;-71
2022/08/17 07:26:16;;;;;;;6.30;5.70;;;27.10;69.70;;;;;;628031;229;26934;-71
2022/08/17 07:28:43;;;;;;;6.32;5.72;;;27.10;69.60;;;;;;613050;233;26604;-70
2022/08/17 07:31:12;;;;;;;9.25;5.55;;;27.10;67.90;;;;;;612935;233;26819;-71
2022/08/17 07:33:38;;;;;;;6.75;5.47;;;27.20;68.60;;;;;;612558;234;26580;-71
2022/08/17 07:36:05;;;;;;;9.75;6.32;;;27.20;68.20;;;;;;612740;234;27235;-70
2022/08/17 07:38:32;;;;;;;7.53;5.80;;;27.40;67.90;;;;;;610071;234;26556;-70
2022/08/17 07:41:02;;;;;;;6.45;5.85;;;27.50;65.10;;;;;;612629;234;26580;-70
2022/08/17 07:43:46;;;;;;;6.40;5.80;;;27.40;64.90;;;;;;612889;235;26798;-71
2022/08/17 07:48:54;;;;;;;5.65;4.85;;;27.60;60.80;;;;;;612743;233;26801;-70
2022/08/17 07:51:23;;;;;;;6.32;5.72;;;27.70;61.90;;;;;;612733;233;26568;-71
2022/08/17 07:53:50;;;;;;;12.07;5.95;;;27.70;61.90;;;;;;612576;234;26817;-70
2022/08/17 07:56:29;;;;;;;6.62;5.40;;;27.80;62.30;;;;;;612679;233;26556;-71
2022/08/17 07:59:15;;;;;;;7.35;5.20;;;27.90;60.40;;;;;;612691;234;26550;-71
2022/08/17 08:01:43;;;;;;;5.20;4.78;;;27.90;60.30;;;;;;609226;234;26587;-71
2022/08/17 08:04:39;;;;;;;7.60;4.80;;;27.90;59.80;;;;;;612730;233;26584;-67
2022/08/17 08:07:07;;;;;;;7.25;5.62;;;28.00;60.80;;;;;;612798;232;26826;-67
2022/08/17 08:09:37;;;;;;;4.47;4.12;;;28.10;61.10;;;;;;611658;233;26576;-68
2022/08/17 08:12:24;;;;;;;6.22;4.95;;;28.20;58.90;;;;;;636236;226;26812;-68
2022/08/17 08:14:55;;;;;;;8.57;5.18;;;28.30;59.70;;;;;;635936;225;26824;-67
2022/08/17 08:17:22;;;;;;;8.02;4.65;;;28.40;59.30;;;;;;634488;226;26571;-67
2022/08/17 08:19:48;;;;;;;7.32;5.40;;;28.50;58.70;;;;;;630258;226;26838;-66
2022/08/17 08:22:18;;;;;;;9.90;5.25;;;28.50;58.70;;;;;;625298;229;26593;-67
2022/08/17 08:24:55;;;;;;;5.78;4.93;;;28.50;58.60;;;;;;625078;229;26616;-67
2022/08/17 08:27:27;;;;;;;5.05;4.30;;;28.60;56.90;;;;;;624483;230;26536;-67
2022/08/17 08:30:09;;;;;;;5.30;4.60;;;28.60;56.90;;;;;;624821;230;26518;-67
2022/08/17 08:32:46;;;;;;;10.25;5.25;;;28.50;57.80;;;;;;625207;230;26513;-68
2022/08/17 08:35:45;;;;;;;66.50;18.75;;;28.50;57.80;;;;;;625209;230;26538;-67
2022/08/17 08:38:37;;;;;;;91.87;25.23;;;28.60;58.50;;;;;;622093;230;26814;-69
2022/08/17 08:41:10;;;;;;;75.75;18.42;;;28.70;57.40;;;;;;624176;230;26572;-66
2022/08/17 08:43:41;;;;;;;66.20;16.92;;;28.60;57.30;;;;;;625252;228;26608;-67
2022/08/17 08:46:28;;;;;;;64.70;17.15;;;28.70;56.40;;;;;;629408;227;26576;-66
2022/08/17 08:49:05;;;;;;;8.05;5.15;;;28.70;56.20;;;;;;633622;227;26591;-66
2022/08/17 08:51:41;;;;;;;15.50;5.93;;;28.70;54.90;;;;;;633437;227;26612;-67
2022/08/17 08:54:12;;;;;;;10.27;5.87;;;28.70;55.00;;;;;;633895;227;26834;-65
2022/08/17 08:56:41;;;;;;;7.22;5.10;;;28.90;54.50;;;;;;633172;227;26889;-66
2022/08/17 08:59:13;;;;;;;8.18;5.57;;;28.90;55.30;;;;;;633788;227;26583;-66
2022/08/17 09:02:00;;;;;;;7.12;5.30;;;29.00;55.60;;;;;;633806;227;26576;-67
2022/08/17 09:04:34;;;;;;;7.15;5.18;;;29.10;55.30;;;;;;627574;226;26614;-71
2022/08/17 09:07:03;;;;;;;7.45;4.78;;;29.10;55.20;;;;;;632950;226;26981;-71
2022/08/17 09:09:48;;;;;;;9.57;5.30;;;29.10;54.60;;;;;;633432;227;26567;-71
2022/08/17 09:12:35;;;;;;;4.35;3.72;;;29.20;54.90;;;;;;634171;227;26553;-71
2022/08/17 09:15:03;;;;;;;3.55;3.28;;;29.30;52.00;;;;;;630811;227;26595;-70
2022/08/17 09:17:32;;;;;;;3.78;3.47;;;29.40;52.20;;;;;;633659;227;26569;-71
2022/08/17 09:20:00;;;;;;;3.78;3.47;;;29.30;52.10;;;;;;635510;224;26750;-70
2022/08/17 09:22:31;;;;;;;6.70;4.12;;;29.40;51.70;;;;;;635219;226;26554;-70
2022/08/17 09:25:20;;;;;;;6.95;4.50;;;29.40;53.00;;;;;;635104;226;26847;-70
2022/08/17 09:28:02;;;;;;;5.75;4.47;;;29.50;52.70;;;;;;633648;226;26597;-70
2022/08/17 09:30:28;;;;;;;6.40;3.95;;;29.60;52.90;;;;;;634536;227;26827;-70
2022/08/17 09:32:56;;;;;;;5.20;4.12;;;29.60;52.70;;;;;;634341;227;26573;-70
2022/08/17 09:35:28;;;;;;;4.68;4.12;;;29.70;52.80;;;;;;634527;227;26582;-70
2022/08/17 09:38:00;;;;;;;5.45;3.40;;;29.80;52.60;;;;;;634261;227;26533;-70
2022/08/17 09:40:26;;;;;;;3.80;3.50;;;29.90;51.20;;;;;;634179;227;26568;-70
2022/08/17 09:42:55;;;;;;;3.65;3.45;;;30.00;49.80;;;;;;633930;227;26782;-70
2022/08/17 09:45:33;;;;;;;4.60;3.90;;;30.00;49.30;;;;;;634008;227;26542;-70
2022/08/17 09:48:04;;;;;;;6.53;4.12;;;30.10;50.20;;;;;;634375;226;26527;-70
2022/08/17 09:50:48;;;;;;;4.97;3.90;;;30.20;50.00;;;;;;634182;227;26547;-70
2022/08/17 09:53:14;;;;;;;5.30;4.03;;;30.40;49.90;;;;;;633787;227;26572;-70
2022/08/17 09:55:47;;;;;;;5.47;3.75;;;30.60;50.10;;;;;;631564;223;26918;-70
2022/08/17 09:58:29;;;;;;;3.85;3.50;;;30.80;50.20;;;;;;623611;230;26624;-70
2022/08/17 10:00:57;;;;;;;4.47;4.12;;;31.10;48.50;;;;;;600821;239;26595;-70
2022/08/17 10:03:27;;;;;;;6.10;3.90;;;31.10;48.50;;;;;;601569;239;26591;-69
2022/08/17 10:06:06;;;;;;;4.07;3.72;;;31.40;49.10;;;;;;612217;235;26551;-68
2022/08/17 10:08:44;;;;;;;4.10;3.70;;;31.50;48.50;;;;;;600737;239;26564;-68
2022/08/17 10:12:14;;;;;;;3.60;3.30;;;31.60;47.60;;;;;;601205;239;26541;-68
2022/08/17 10:13:57;;;;;;;3.53;3.22;;;31.60;45.70;;;;;;591752;239;26662;-68
2022/08/17 10:16:29;;;;;;;3.83;3.47;;;31.60;45.70;;;;;;600802;239;27322;-69
2022/08/17 10:19:08;;;;;;;3.28;3.05;;;31.60;44.30;;;;;;600725;239;26829;-68
2022/08/17 10:26:49;;;;;;;2.67;2.55;;;31.40;45.60;;;;;;601207;239;26625;-68
2022/08/17 10:29:18;;;;;;;2.47;2.37;;;31.50;44.70;;;;;;601074;239;26880;-68
2022/08/17 10:31:47;;;;;;;3.08;2.83;;;31.10;44.80;;;;;;602572;237;26622;-68
2022/08/17 10:34:24;;;;;;;3.00;2.80;;;31.20;44.80;;;;;;602224;239;26639;-67
2022/08/17 10:36:54;;;;;;;2.45;2.35;;;31.10;44.70;;;;;;603762;234;26832;-68
2022/08/17 10:39:25;;;;;;;2.58;2.47;;;31.20;44.50;;;;;;625522;230;26782;-68
2022/08/17 10:41:53;;;;;;;3.20;2.90;;;31.20;44.70;;;;;;627714;226;26589;-68
2022/08/17 10:44:23;;;;;;;3.60;3.30;;;31.30;45.10;;;;;;635817;226;26615;-67
2022/08/17 10:47:03;;;;;;;4.07;3.67;;;31.30;45.10;;;;;;634902;226;26828;-67
2022/08/17 10:49:34;;;;;;;3.45;3.00;;;31.50;44.80;;;;;;635866;226;26569;-67
2022/08/17 10:52:02;;;;;;;3.80;3.47;;;31.70;45.30;;;;;;635551;226;26535;-67
2022/08/17 10:54:33;;;;;;;3.83;3.37;;;31.70;45.10;;;;;;633807;225;26610;-68
2022/08/17 10:57:01;;;;;;;3.25;3.00;;;31.80;45.50;;;;;;638317;225;26601;-67
2022/08/17 10:59:47;;;;;;;3.45;3.15;;;31.90;44.40;;;;;;638411;225;26652;-67
2022/08/17 11:02:24;;;;;;;3.90;3.53;;;32.00;44.40;;;;;;638147;225;26588;-67
2022/08/17 11:05:05;;;;;;;3.40;3.10;;;32.00;44.40;;;;;;638075;225;26628;-67
2022/08/17 11:08:04;;;;;;;3.47;3.17;;;32.00;43.50;;;;;;637811;225;26544;-67
2022/08/17 11:10:58;;;;;;;2.15;2.03;;;32.30;43.00;;;;;;636328;225;26555;-67
2022/08/17 11:13:34;;;;;;;5.28;3.10;;;32.20;43.00;;;;;;627551;221;26975;-67
2022/08/17 11:16:07;;;;;;;3.37;3.08;;;32.20;43.80;;;;;;626597;225;26561;-67
2022/08/17 11:18:43;;;;;;;3.53;3.22;;;32.20;43.60;;;;;;624458;230;26588;-67
2022/08/17 11:21:31;;;;;;;4.20;2.90;;;32.10;42.60;;;;;;624378;226;26591;-67
2022/08/17 11:24:06;;;;;;;3.10;2.90;;;32.10;43.70;;;;;;629320;225;26650;-66
2022/08/17 11:26:33;;;;;;;3.30;3.05;;;32.10;43.60;;;;;;625355;230;26600;-66
2022/08/17 11:29:04;;;;;;;2.58;2.37;;;32.20;42.80;;;;;;625328;230;26585;-66
2022/08/17 11:31:33;;;;;;;3.47;2.72;;;32.20;42.80;;;;;;625592;230;26601;-66
2022/08/17 11:34:20;;;;;;;3.20;2.95;;;32.30;43.00;;;;;;625662;230;26827;-65
2022/08/17 11:36:52;;;;;;;3.12;2.92;;;32.30;42.90;;;;;;625038;227;26578;-66
2022/08/17 11:39:23;;;;;;;3.17;2.87;;;32.20;41.90;;;;;;623978;230;26546;-65
2022/08/17 11:41:58;;;;;;;4.18;3.35;;;32.20;43.10;;;;;;624550;228;26950;-66
2022/08/17 11:44:28;;;;;;;3.00;2.80;;;32.30;43.40;;;;;;625449;230;26612;-66
2022/08/17 11:52:27;;;;;;;3.60;3.22;;;33.40;41.70;;;;;;625086;230;26517;-66
2022/08/17 11:54:57;;;;;;;4.00;2.83;;;33.90;41.60;;;;;;636099;226;26738;-66
2022/08/17 11:57:47;;;;;;;2.78;2.58;;;34.00;41.60;;;;;;634806;227;26561;-66
2022/08/17 12:00:36;;;;;;;3.15;2.95;;;34.10;41.10;;;;;;631336;227;26580;-66
2022/08/17 12:03:21;;;;;;;3.25;3.00;;;34.10;41.10;;;;;;633111;227;26817;-66
2022/08/17 12:05:45;;;;;;;3.17;2.97;;;34.20;39.70;;;;;;634152;227;26608;-66
2022/08/17 12:08:16;;;;;;;3.87;3.33;;;34.60;40.90;;;;;;634291;227;26543;-66
2022/08/17 12:10:51;;;;;;;3.65;3.00;;;34.50;40.80;;;;;;634091;225;26519;-66
2022/08/17 12:13:18;;;;;;;3.42;3.12;;;34.60;41.10;;;;;;634041;227;26531;-66
2022/08/17 12:15:48;;;;;;;3.72;3.42;;;34.60;39.70;;;;;;634695;227;26545;-66
2022/08/17 12:18:19;;;;;;;3.45;2.90;;;34.10;38.90;;;;;;634228;227;26540;-66
2022/08/17 12:20:47;;;;;;;3.60;2.85;;;34.00;38.80;;;;;;633906;226;26633;-65
2022/08/17 12:23:14;;;;;;;4.18;2.90;;;34.10;40.50;;;;;;633180;227;26589;-66
2022/08/17 12:25:48;;;;;;;3.92;3.30;;;34.20;38.40;;;;;;633216;226;26602;-64
2022/08/17 12:28:18;;;;;;;4.00;3.60;;;34.30;40.40;;;;;;633768;227;26592;-66
2022/08/17 12:30:45;;;;;;;5.95;2.92;;;34.40;38.70;;;;;;635342;226;26585;-66
2022/08/17 12:33:13;;;;;;;3.05;2.85;;;34.60;38.90;;;;;;635950;226;26522;-66
2022/08/17 12:35:42;;;;;;;3.33;3.03;;;34.80;39.80;;;;;;636433;225;26540;-66
2022/08/17 12:38:09;;;;;;;3.53;3.25;;;35.00;38.50;;;;;;636209;226;26537;-66
2022/08/17 12:40:36;;;;;;;7.70;3.30;;;35.10;38.60;;;;;;635823;226;26537;-66
2022/08/17 12:43:03;;;;;;;3.60;3.00;;;35.30;37.60;;;;;;636455;226;26544;-65
2022/08/17 12:45:31;;;;;;;3.62;2.85;;;35.30;38.10;;;;;;636704;222;26803;-65
2022/08/17 12:47:59;;;;;;;3.97;3.10;;;35.50;38.20;;;;;;636644;226;26521;-66
2022/08/17 12:50:27;;;;;;;3.35;3.05;;;35.60;38.00;;;;;;636774;226;26536;-65
2022/08/17 12:52:54;;;;;;;3.55;3.25;;;35.60;37.90;;;;;;636934;221;26529;-66
2022/08/17 12:55:21;;;;;;;5.18;2.70;;;35.90;37.90;;;;;;638426;225;26610;-66
2022/08/17 12:57:52;;;;;;;3.25;2.95;;;36.30;38.10;;;;;;638272;225;26516;-66
2022/08/17 13:00:29;;;;;;;2.85;2.65;;;36.70;37.90;;;;;;637688;225;26576;-66
2022/08/17 13:03:08;;;;;;;2.85;2.60;;;37.10;36.80;;;;;;637817;225;26520;-66
2022/08/17 13:05:35;;;;;;;3.58;2.85;;;37.70;36.30;;;;;;637344;226;26540;-66
2022/08/17 13:08:18;;;;;;;2.90;2.70;;;37.70;36.40;;;;;;637646;226;26510;-66
2022/08/17 13:11:00;;;;;;;11.40;3.22;;;37.70;36.00;;;;;;637719;226;26571;-66
2022/08/17 13:13:28;;;;;;;3.58;3.28;;;38.30;34.20;;;;;;637058;226;26630;-66
2022/08/17 13:15:55;;;;;;;2.87;2.67;;;38.40;35.60;;;;;;636859;226;26566;-65
2022/08/17 13:18:30;;;;;;;3.05;2.85;;;38.50;34.90;;;;;;636800;226;26827;-66
2022/08/17 13:20:57;;;;;;;4.00;3.03;;;38.20;34.00;;;;;;636718;226;26539;-66
2022/08/17 13:23:27;;;;;;;3.15;2.95;;;38.10;35.30;;;;;;637067;226;26634;-66
2022/08/17 13:25:53;;;;;;;3.03;2.80;;;38.10;34.80;;;;;;636887;226;26904;-66
2022/08/17 13:28:20;;;;;;;5.12;3.25;;;37.80;33.50;;;;;;637104;226;27035;-66